sensor_id;sensor_type;location;lat;lon;timestamp;P1;durP1;ratioP1;P2;durP2;ratioP2
21235;SDS011;10775;42.678;26.324;2023-01-10T00:01:07;32.55;;;16.25;;
21235;SDS011;10775;42.678;26.324;2023-01-10T00:03:33;30.55;;;15.73;;
21235;SDS011;10775;42.678;26.324;2023-01-10T00:05:58;32.03;;;16.00;;
21235;SDS011;10775;42.678;26.324;2023-01-10T00:08:24;33.65;;;15.82;;
21235;SDS011;10775;42.678;26.324;2023-01-10T00:10:49;28.85;;;15.48;;
21235;SDS011;10775;42.678;26.324;2023-01-10T00:13:15;38.17;;;19.65;;
21235;SDS011;10775;42.678;26.324;2023-01-10T00:15:49;28.75;;;14.77;;
21235;SDS011;10775;42.678;26.324;2023-01-10T00:18:19;27.63;;;14.35;;
21235;SDS011;10775;42.678;26.324;2023-01-10T00:20:46;36.85;;;19.15;;
21235;SDS011;10775;42.678;26.324;2023-01-10T00:23:13;29.85;;;15.27;;
21235;SDS011;10775;42.678;26.324;2023-01-10T00:25:40;29.73;;;15.32;;
21235;SDS011;10775;42.678;26.324;2023-01-10T00:28:06;31.42;;;15.93;;
21235;SDS011;10775;42.678;26.324;2023-01-10T00:30:46;27.95;;;15.18;;
21235;SDS011;10775;42.678;26.324;2023-01-10T00:33:19;28.85;;;14.23;;
21235;SDS011;10775;42.678;26.324;2023-01-10T00:43:33;27.00;;;13.48;;
21235;SDS011;10775;42.678;26.324;2023-01-10T00:46:37;24.80;;;13.45;;
21235;SDS011;10775;42.678;26.324;2023-01-10T00:49:02;24.80;;;13.35;;
21235;SDS011;10775;42.678;26.324;2023-01-10T01:01:32;22.05;;;11.98;;
21235;SDS011;10775;42.678;26.324;2023-01-10T01:03:58;24.80;;;12.52;;
21235;SDS011;10775;42.678;26.324;2023-01-10T01:06:24;25.75;;;13.55;;
21235;SDS011;10775;42.678;26.324;2023-01-10T01:08:50;23.27;;;12.63;;
21235;SDS011;10775;42.678;26.324;2023-01-10T01:11:16;24.85;;;11.25;;
21235;SDS011;10775;42.678;26.324;2023-01-10T01:13:41;23.30;;;12.43;;
21235;SDS011;10775;42.678;26.324;2023-01-10T01:16:07;24.17;;;12.02;;
21235;SDS011;10775;42.678;26.324;2023-01-10T01:18:33;21.42;;;12.00;;
21235;SDS011;10775;42.678;26.324;2023-01-10T01:20:58;22.52;;;11.68;;
21235;SDS011;10775;42.678;26.324;2023-01-10T01:23:27;24.52;;;13.90;;
21235;SDS011;10775;42.678;26.324;2023-01-10T01:25:54;29.35;;;14.63;;
21235;SDS011;10775;42.678;26.324;2023-01-10T01:28:20;27.98;;;14.45;;
21235;SDS011;10775;42.678;26.324;2023-01-10T01:30:46;30.75;;;15.13;;
21235;SDS011;10775;42.678;26.324;2023-01-10T01:33:12;24.02;;;12.88;;
21235;SDS011;10775;42.678;26.324;2023-01-10T01:35:43;29.20;;;14.63;;
21235;SDS011;10775;42.678;26.324;2023-01-10T01:38:09;27.55;;;14.80;;
21235;SDS011;10775;42.678;26.324;2023-01-10T01:40:35;25.48;;;13.98;;
21235;SDS011;10775;42.678;26.324;2023-01-10T01:43:03;31.00;;;15.60;;
21235;SDS011;10775;42.678;26.324;2023-01-10T01:45:33;30.65;;;16.88;;
21235;SDS011;10775;42.678;26.324;2023-01-10T01:56:16;28.58;;;14.55;;
21235;SDS011;10775;42.678;26.324;2023-01-10T01:59:05;36.22;;;17.10;;
21235;SDS011;10775;42.678;26.324;2023-01-10T02:01:37;25.08;;;12.38;;
21235;SDS011;10775;42.678;26.324;2023-01-10T02:04:19;29.88;;;14.48;;
21235;SDS011;10775;42.678;26.324;2023-01-10T02:06:50;30.52;;;14.35;;
21235;SDS011;10775;42.678;26.324;2023-01-10T02:14:56;22.60;;;11.15;;
21235;SDS011;10775;42.678;26.324;2023-01-10T02:17:23;29.92;;;14.55;;
21235;SDS011;10775;42.678;26.324;2023-01-10T02:33:49;28.52;;;14.43;;
21235;SDS011;10775;42.678;26.324;2023-01-10T02:36:36;30.77;;;14.73;;
21235;SDS011;10775;42.678;26.324;2023-01-10T02:41:44;31.55;;;15.23;;
21235;SDS011;10775;42.678;26.324;2023-01-10T02:44:13;28.73;;;13.93;;
21235;SDS011;10775;42.678;26.324;2023-01-10T02:46:44;29.20;;;14.95;;
21235;SDS011;10775;42.678;26.324;2023-01-10T02:49:12;31.13;;;14.20;;
21235;SDS011;10775;42.678;26.324;2023-01-10T02:51:37;29.33;;;14.65;;
21235;SDS011;10775;42.678;26.324;2023-01-10T02:54:10;29.48;;;14.98;;
21235;SDS011;10775;42.678;26.324;2023-01-10T03:02:54;28.52;;;14.02;;
21235;SDS011;10775;42.678;26.324;2023-01-10T03:11:06;32.95;;;16.20;;
21235;SDS011;10775;42.678;26.324;2023-01-10T03:16:00;30.50;;;15.85;;
21235;SDS011;10775;42.678;26.324;2023-01-10T03:18:36;30.35;;;15.48;;
21235;SDS011;10775;42.678;26.324;2023-01-10T03:21:09;31.13;;;15.25;;
21235;SDS011;10775;42.678;26.324;2023-01-10T03:23:36;30.80;;;14.27;;
21235;SDS011;10775;42.678;26.324;2023-01-10T03:26:04;32.28;;;15.43;;
21235;SDS011;10775;42.678;26.324;2023-01-10T03:28:32;28.60;;;14.48;;
21235;SDS011;10775;42.678;26.324;2023-01-10T03:31:05;31.33;;;15.35;;
21235;SDS011;10775;42.678;26.324;2023-01-10T03:36:40;26.92;;;13.95;;
21235;SDS011;10775;42.678;26.324;2023-01-10T03:39:17;32.45;;;16.17;;
21235;SDS011;10775;42.678;26.324;2023-01-10T03:44:50;29.13;;;15.32;;
21235;SDS011;10775;42.678;26.324;2023-01-10T03:47:34;30.45;;;14.45;;
21235;SDS011;10775;42.678;26.324;2023-01-10T03:50:07;31.08;;;15.13;;
21235;SDS011;10775;42.678;26.324;2023-01-10T03:52:38;31.95;;;15.82;;
21235;SDS011;10775;42.678;26.324;2023-01-10T03:55:06;31.52;;;15.80;;
21235;SDS011;10775;42.678;26.324;2023-01-10T03:57:35;34.38;;;15.98;;
21235;SDS011;10775;42.678;26.324;2023-01-10T04:00:00;26.70;;;13.93;;
21235;SDS011;10775;42.678;26.324;2023-01-10T04:02:27;29.95;;;14.55;;
21235;SDS011;10775;42.678;26.324;2023-01-10T04:04:55;42.05;;;20.30;;
21235;SDS011;10775;42.678;26.324;2023-01-10T04:07:21;44.90;;;22.42;;
21235;SDS011;10775;42.678;26.324;2023-01-10T04:09:47;28.83;;;14.88;;
21235;SDS011;10775;42.678;26.324;2023-01-10T04:12:13;28.55;;;14.05;;
21235;SDS011;10775;42.678;26.324;2023-01-10T04:14:38;25.52;;;14.13;;
21235;SDS011;10775;42.678;26.324;2023-01-10T04:17:04;26.05;;;13.73;;
21235;SDS011;10775;42.678;26.324;2023-01-10T04:19:30;28.48;;;14.73;;
21235;SDS011;10775;42.678;26.324;2023-01-10T04:21:55;27.05;;;13.70;;
21235;SDS011;10775;42.678;26.324;2023-01-10T04:24:21;27.55;;;13.38;;
21235;SDS011;10775;42.678;26.324;2023-01-10T04:26:47;23.50;;;10.60;;
21235;SDS011;10775;42.678;26.324;2023-01-10T04:29:12;39.72;;;17.13;;
21235;SDS011;10775;42.678;26.324;2023-01-10T04:31:38;32.20;;;14.07;;
21235;SDS011;10775;42.678;26.324;2023-01-10T04:34:05;29.63;;;14.05;;
21235;SDS011;10775;42.678;26.324;2023-01-10T04:36:31;28.35;;;13.80;;
21235;SDS011;10775;42.678;26.324;2023-01-10T04:38:57;29.95;;;15.50;;
21235;SDS011;10775;42.678;26.324;2023-01-10T04:41:23;27.85;;;13.23;;
21235;SDS011;10775;42.678;26.324;2023-01-10T04:43:49;25.35;;;12.60;;
21235;SDS011;10775;42.678;26.324;2023-01-10T04:46:14;29.38;;;13.30;;
21235;SDS011;10775;42.678;26.324;2023-01-10T04:48:40;34.33;;;14.63;;
21235;SDS011;10775;42.678;26.324;2023-01-10T04:51:06;30.02;;;13.88;;
21235;SDS011;10775;42.678;26.324;2023-01-10T04:53:31;31.23;;;15.45;;
21235;SDS011;10775;42.678;26.324;2023-01-10T04:56:00;29.27;;;15.05;;
21235;SDS011;10775;42.678;26.324;2023-01-10T04:58:28;26.88;;;13.05;;
21235;SDS011;10775;42.678;26.324;2023-01-10T05:00:53;26.98;;;12.95;;
21235;SDS011;10775;42.678;26.324;2023-01-10T05:03:19;25.40;;;13.02;;
21235;SDS011;10775;42.678;26.324;2023-01-10T05:05:45;28.33;;;14.02;;
21235;SDS011;10775;42.678;26.324;2023-01-10T05:08:10;28.30;;;13.55;;
21235;SDS011;10775;42.678;26.324;2023-01-10T05:10:36;26.95;;;13.05;;
21235;SDS011;10775;42.678;26.324;2023-01-10T05:13:01;25.00;;;12.73;;
21235;SDS011;10775;42.678;26.324;2023-01-10T05:15:27;25.83;;;12.68;;
21235;SDS011;10775;42.678;26.324;2023-01-10T05:17:57;30.63;;;13.93;;
21235;SDS011;10775;42.678;26.324;2023-01-10T05:20:24;22.98;;;11.57;;
21235;SDS011;10775;42.678;26.324;2023-01-10T05:22:50;25.05;;;12.60;;
21235;SDS011;10775;42.678;26.324;2023-01-10T05:25:15;23.88;;;12.40;;
21235;SDS011;10775;42.678;26.324;2023-01-10T05:27:41;27.88;;;13.75;;
21235;SDS011;10775;42.678;26.324;2023-01-10T05:30:11;25.98;;;12.38;;
21235;SDS011;10775;42.678;26.324;2023-01-10T05:32:37;26.63;;;12.20;;
21235;SDS011;10775;42.678;26.324;2023-01-10T05:35:03;25.77;;;12.32;;
21235;SDS011;10775;42.678;26.324;2023-01-10T05:37:30;28.05;;;13.85;;
21235;SDS011;10775;42.678;26.324;2023-01-10T05:39:55;26.58;;;13.10;;
21235;SDS011;10775;42.678;26.324;2023-01-10T05:42:21;27.75;;;13.00;;
21235;SDS011;10775;42.678;26.324;2023-01-10T05:44:46;24.95;;;12.40;;
21235;SDS011;10775;42.678;26.324;2023-01-10T05:47:12;52.22;;;25.48;;
21235;SDS011;10775;42.678;26.324;2023-01-10T05:49:38;43.00;;;21.42;;
21235;SDS011;10775;42.678;26.324;2023-01-10T05:52:03;35.40;;;16.65;;
21235;SDS011;10775;42.678;26.324;2023-01-10T05:54:29;32.28;;;15.75;;
21235;SDS011;10775;42.678;26.324;2023-01-10T05:56:55;27.02;;;12.65;;
21235;SDS011;10775;42.678;26.324;2023-01-10T05:59:21;22.58;;;11.98;;
21235;SDS011;10775;42.678;26.324;2023-01-10T06:01:46;21.75;;;11.65;;
21235;SDS011;10775;42.678;26.324;2023-01-10T06:04:12;24.17;;;11.88;;
21235;SDS011;10775;42.678;26.324;2023-01-10T06:06:38;25.85;;;13.32;;
21235;SDS011;10775;42.678;26.324;2023-01-10T06:09:04;41.92;;;20.83;;
21235;SDS011;10775;42.678;26.324;2023-01-10T06:11:30;22.45;;;11.57;;
21235;SDS011;10775;42.678;26.324;2023-01-10T06:14:00;21.67;;;11.45;;
21235;SDS011;10775;42.678;26.324;2023-01-10T06:16:26;25.52;;;13.95;;
21235;SDS011;10775;42.678;26.324;2023-01-10T06:18:52;40.58;;;20.77;;
21235;SDS011;10775;42.678;26.324;2023-01-10T06:21:18;28.05;;;14.50;;
21235;SDS011;10775;42.678;26.324;2023-01-10T06:23:44;32.05;;;16.25;;
21235;SDS011;10775;42.678;26.324;2023-01-10T06:26:09;25.70;;;14.20;;
21235;SDS011;10775;42.678;26.324;2023-01-10T06:28:35;25.08;;;11.48;;
21235;SDS011;10775;42.678;26.324;2023-01-10T06:31:01;37.53;;;19.63;;
21235;SDS011;10775;42.678;26.324;2023-01-10T06:33:26;29.40;;;12.98;;
21235;SDS011;10775;42.678;26.324;2023-01-10T06:35:52;22.50;;;11.57;;
21235;SDS011;10775;42.678;26.324;2023-01-10T06:38:17;23.23;;;10.40;;
21235;SDS011;10775;42.678;26.324;2023-01-10T06:40:43;17.05;;;9.70;;
21235;SDS011;10775;42.678;26.324;2023-01-10T06:43:09;31.13;;;14.82;;
21235;SDS011;10775;42.678;26.324;2023-01-10T06:45:34;29.95;;;14.07;;
21235;SDS011;10775;42.678;26.324;2023-01-10T06:48:00;27.05;;;12.93;;
21235;SDS011;10775;42.678;26.324;2023-01-10T06:50:26;25.33;;;13.50;;
21235;SDS011;10775;42.678;26.324;2023-01-10T06:52:56;25.23;;;13.07;;
21235;SDS011;10775;42.678;26.324;2023-01-10T06:55:23;21.23;;;12.05;;
21235;SDS011;10775;42.678;26.324;2023-01-10T06:57:54;24.85;;;11.90;;
21235;SDS011;10775;42.678;26.324;2023-01-10T07:00:20;23.50;;;13.30;;
21235;SDS011;10775;42.678;26.324;2023-01-10T07:02:46;22.20;;;12.68;;
21235;SDS011;10775;42.678;26.324;2023-01-10T07:05:12;20.02;;;11.55;;
21235;SDS011;10775;42.678;26.324;2023-01-10T07:07:38;20.33;;;10.43;;
21235;SDS011;10775;42.678;26.324;2023-01-10T07:10:03;21.20;;;10.75;;
21235;SDS011;10775;42.678;26.324;2023-01-10T07:12:29;21.10;;;10.75;;
21235;SDS011;10775;42.678;26.324;2023-01-10T07:14:55;15.80;;;9.20;;
21235;SDS011;10775;42.678;26.324;2023-01-10T07:17:21;20.25;;;11.40;;
21235;SDS011;10775;42.678;26.324;2023-01-10T07:19:46;20.38;;;10.70;;
21235;SDS011;10775;42.678;26.324;2023-01-10T07:22:12;17.75;;;9.82;;
21235;SDS011;10775;42.678;26.324;2023-01-10T07:24:38;19.10;;;10.70;;
21235;SDS011;10775;42.678;26.324;2023-01-10T07:27:03;15.45;;;9.45;;
21235;SDS011;10775;42.678;26.324;2023-01-10T07:29:29;17.50;;;9.63;;
21235;SDS011;10775;42.678;26.324;2023-01-10T07:31:55;17.30;;;10.10;;
21235;SDS011;10775;42.678;26.324;2023-01-10T07:34:20;14.45;;;9.10;;
21235;SDS011;10775;42.678;26.324;2023-01-10T07:36:46;17.77;;;9.38;;
21235;SDS011;10775;42.678;26.324;2023-01-10T07:39:12;20.10;;;11.07;;
21235;SDS011;10775;42.678;26.324;2023-01-10T07:41:37;17.15;;;10.23;;
21235;SDS011;10775;42.678;26.324;2023-01-10T07:44:03;17.42;;;10.23;;
21235;SDS011;10775;42.678;26.324;2023-01-10T07:46:29;16.90;;;9.63;;
21235;SDS011;10775;42.678;26.324;2023-01-10T07:48:55;13.30;;;9.43;;
21235;SDS011;10775;42.678;26.324;2023-01-10T07:51:20;15.98;;;9.45;;
21235;SDS011;10775;42.678;26.324;2023-01-10T07:53:46;15.38;;;9.50;;
21235;SDS011;10775;42.678;26.324;2023-01-10T07:56:12;16.38;;;9.43;;
21235;SDS011;10775;42.678;26.324;2023-01-10T07:58:37;17.48;;;9.90;;
21235;SDS011;10775;42.678;26.324;2023-01-10T08:01:03;18.10;;;11.52;;
21235;SDS011;10775;42.678;26.324;2023-01-10T08:03:30;14.57;;;8.75;;
21235;SDS011;10775;42.678;26.324;2023-01-10T08:06:04;16.27;;;8.95;;
21235;SDS011;10775;42.678;26.324;2023-01-10T08:08:32;24.50;;;13.98;;
21235;SDS011;10775;42.678;26.324;2023-01-10T08:10:58;19.60;;;11.98;;
21235;SDS011;10775;42.678;26.324;2023-01-10T08:13:26;22.05;;;12.63;;
21235;SDS011;10775;42.678;26.324;2023-01-10T08:15:53;20.63;;;12.40;;
21235;SDS011;10775;42.678;26.324;2023-01-10T08:18:19;19.67;;;11.82;;
21235;SDS011;10775;42.678;26.324;2023-01-10T08:20:49;18.17;;;10.93;;
21235;SDS011;10775;42.678;26.324;2023-01-10T08:23:16;18.75;;;11.25;;
21235;SDS011;10775;42.678;26.324;2023-01-10T08:25:42;17.85;;;10.43;;
21235;SDS011;10775;42.678;26.324;2023-01-10T08:28:08;34.05;;;20.52;;
21235;SDS011;10775;42.678;26.324;2023-01-10T08:30:34;29.35;;;17.33;;
21235;SDS011;10775;42.678;26.324;2023-01-10T08:33:03;18.00;;;10.27;;
21235;SDS011;10775;42.678;26.324;2023-01-10T08:35:34;17.25;;;9.45;;
21235;SDS011;10775;42.678;26.324;2023-01-10T08:38:01;18.08;;;10.38;;
21235;SDS011;10775;42.678;26.324;2023-01-10T08:40:26;17.25;;;10.18;;
21235;SDS011;10775;42.678;26.324;2023-01-10T08:42:59;14.25;;;9.57;;
21235;SDS011;10775;42.678;26.324;2023-01-10T08:45:29;18.00;;;10.75;;
21235;SDS011;10775;42.678;26.324;2023-01-10T08:47:55;19.13;;;11.60;;
21235;SDS011;10775;42.678;26.324;2023-01-10T08:50:21;24.60;;;13.43;;
21235;SDS011;10775;42.678;26.324;2023-01-10T08:52:47;18.40;;;11.07;;
21235;SDS011;10775;42.678;26.324;2023-01-10T08:55:13;46.03;;;21.48;;
21235;SDS011;10775;42.678;26.324;2023-01-10T08:57:39;27.45;;;14.27;;
21235;SDS011;10775;42.678;26.324;2023-01-10T09:00:04;23.27;;;13.23;;
21235;SDS011;10775;42.678;26.324;2023-01-10T09:02:31;21.52;;;12.20;;
21235;SDS011;10775;42.678;26.324;2023-01-10T09:04:56;50.05;;;24.00;;
21235;SDS011;10775;42.678;26.324;2023-01-10T09:07:22;27.08;;;14.82;;
21235;SDS011;10775;42.678;26.324;2023-01-10T09:09:48;26.65;;;14.00;;
21235;SDS011;10775;42.678;26.324;2023-01-10T09:12:13;21.55;;;12.65;;
21235;SDS011;10775;42.678;26.324;2023-01-10T09:14:57;27.92;;;13.18;;
21235;SDS011;10775;42.678;26.324;2023-01-10T09:17:23;27.05;;;14.23;;
21235;SDS011;10775;42.678;26.324;2023-01-10T09:19:48;29.17;;;14.35;;
21235;SDS011;10775;42.678;26.324;2023-01-10T09:22:14;28.42;;;15.95;;
21235;SDS011;10775;42.678;26.324;2023-01-10T09:24:40;24.05;;;13.73;;
21235;SDS011;10775;42.678;26.324;2023-01-10T09:27:08;21.60;;;11.93;;
21235;SDS011;10775;42.678;26.324;2023-01-10T09:29:35;23.25;;;13.55;;
21235;SDS011;10775;42.678;26.324;2023-01-10T09:32:01;19.48;;;11.43;;
21235;SDS011;10775;42.678;26.324;2023-01-10T09:34:26;21.33;;;11.23;;
21235;SDS011;10775;42.678;26.324;2023-01-10T09:36:52;19.27;;;12.07;;
21235;SDS011;10775;42.678;26.324;2023-01-10T09:39:18;23.67;;;12.13;;
21235;SDS011;10775;42.678;26.324;2023-01-10T09:45:05;22.15;;;12.00;;
21235;SDS011;10775;42.678;26.324;2023-01-10T09:47:46;20.75;;;12.35;;
21235;SDS011;10775;42.678;26.324;2023-01-10T09:50:21;21.88;;;12.85;;
21235;SDS011;10775;42.678;26.324;2023-01-10T09:55:22;24.17;;;13.95;;
21235;SDS011;10775;42.678;26.324;2023-01-10T09:57:54;24.85;;;12.75;;
21235;SDS011;10775;42.678;26.324;2023-01-10T10:00:23;23.02;;;12.75;;
21235;SDS011;10775;42.678;26.324;2023-01-10T10:02:58;24.83;;;13.27;;
21235;SDS011;10775;42.678;26.324;2023-01-10T10:05:25;25.13;;;13.05;;
21235;SDS011;10775;42.678;26.324;2023-01-10T10:07:53;21.73;;;12.02;;
21235;SDS011;10775;42.678;26.324;2023-01-10T10:10:23;18.23;;;10.93;;
21235;SDS011;10775;42.678;26.324;2023-01-10T10:13:33;22.02;;;11.55;;
21235;SDS011;10775;42.678;26.324;2023-01-10T10:16:07;26.55;;;12.63;;
21235;SDS011;10775;42.678;26.324;2023-01-10T10:21:22;21.08;;;10.63;;
21235;SDS011;10775;42.678;26.324;2023-01-10T10:27:20;17.73;;;10.55;;
21235;SDS011;10775;42.678;26.324;2023-01-10T10:38:25;19.55;;;10.55;;
21235;SDS011;10775;42.678;26.324;2023-01-10T10:40:54;20.73;;;9.88;;
21235;SDS011;10775;42.678;26.324;2023-01-10T10:43:22;17.38;;;10.45;;
21235;SDS011;10775;42.678;26.324;2023-01-10T10:46:01;18.10;;;10.05;;
21235;SDS011;10775;42.678;26.324;2023-01-10T10:48:46;17.80;;;9.30;;
21235;SDS011;10775;42.678;26.324;2023-01-10T10:51:27;18.27;;;10.52;;
21235;SDS011;10775;42.678;26.324;2023-01-10T10:54:03;14.50;;;9.23;;
21235;SDS011;10775;42.678;26.324;2023-01-10T10:56:30;16.90;;;10.80;;
21235;SDS011;10775;42.678;26.324;2023-01-10T10:58:57;17.48;;;9.80;;
21235;SDS011;10775;42.678;26.324;2023-01-10T11:01:23;19.35;;;10.00;;
21235;SDS011;10775;42.678;26.324;2023-01-10T11:03:52;20.13;;;9.88;;
21235;SDS011;10775;42.678;26.324;2023-01-10T11:06:22;18.08;;;9.15;;
21235;SDS011;10775;42.678;26.324;2023-01-10T11:08:50;16.75;;;9.98;;
21235;SDS011;10775;42.678;26.324;2023-01-10T11:11:21;18.10;;;10.45;;
21235;SDS011;10775;42.678;26.324;2023-01-10T11:13:58;15.52;;;9.38;;
21235;SDS011;10775;42.678;26.324;2023-01-10T11:19:26;16.80;;;9.52;;
21235;SDS011;10775;42.678;26.324;2023-01-10T11:21:55;19.98;;;10.57;;
21235;SDS011;10775;42.678;26.324;2023-01-10T11:24:28;14.68;;;9.18;;
21235;SDS011;10775;42.678;26.324;2023-01-10T11:27:18;17.92;;;10.32;;
21235;SDS011;10775;42.678;26.324;2023-01-10T11:29:48;16.60;;;10.02;;
21235;SDS011;10775;42.678;26.324;2023-01-10T11:32:16;16.42;;;9.60;;
21235;SDS011;10775;42.678;26.324;2023-01-10T11:37:45;12.02;;;8.40;;
21235;SDS011;10775;42.678;26.324;2023-01-10T11:40:53;14.15;;;8.38;;
21235;SDS011;10775;42.678;26.324;2023-01-10T11:43:31;14.00;;;8.75;;
21235;SDS011;10775;42.678;26.324;2023-01-10T11:46:20;15.18;;;8.50;;
21235;SDS011;10775;42.678;26.324;2023-01-10T11:49:00;14.93;;;8.45;;
21235;SDS011;10775;42.678;26.324;2023-01-10T11:51:32;13.82;;;8.65;;
21235;SDS011;10775;42.678;26.324;2023-01-10T11:54:04;14.63;;;7.60;;
21235;SDS011;10775;42.678;26.324;2023-01-10T11:56:39;14.30;;;8.05;;
21235;SDS011;10775;42.678;26.324;2023-01-10T11:59:08;16.63;;;9.55;;
21235;SDS011;10775;42.678;26.324;2023-01-10T12:04:38;11.63;;;7.85;;
21235;SDS011;10775;42.678;26.324;2023-01-10T12:07:07;14.20;;;7.63;;
21235;SDS011;10775;42.678;26.324;2023-01-10T12:09:37;13.13;;;7.97;;
21235;SDS011;10775;42.678;26.324;2023-01-10T12:17:49;12.25;;;7.57;;
21235;SDS011;10775;42.678;26.324;2023-01-10T12:20:15;13.57;;;8.50;;
21235;SDS011;10775;42.678;26.324;2023-01-10T12:22:43;18.45;;;8.80;;
21235;SDS011;10775;42.678;26.324;2023-01-10T12:25:19;14.43;;;8.25;;
21235;SDS011;10775;42.678;26.324;2023-01-10T12:28:24;10.88;;;6.43;;
21235;SDS011;10775;42.678;26.324;2023-01-10T12:30:54;16.10;;;7.72;;
21235;SDS011;10775;42.678;26.324;2023-01-10T12:33:26;12.55;;;7.20;;
21235;SDS011;10775;42.678;26.324;2023-01-10T12:41:56;11.67;;;7.77;;
21235;SDS011;10775;42.678;26.324;2023-01-10T12:44:52;11.57;;;7.15;;
21235;SDS011;10775;42.678;26.324;2023-01-10T12:47:54;9.85;;;6.82;;
21235;SDS011;10775;42.678;26.324;2023-01-10T12:50:43;14.38;;;7.25;;
21235;SDS011;10775;42.678;26.324;2023-01-10T12:53:22;10.05;;;5.95;;
21235;SDS011;10775;42.678;26.324;2023-01-10T12:56:08;11.27;;;6.75;;
21235;SDS011;10775;42.678;26.324;2023-01-10T12:58:39;13.88;;;7.80;;
21235;SDS011;10775;42.678;26.324;2023-01-10T13:01:09;13.10;;;7.57;;
21235;SDS011;10775;42.678;26.324;2023-01-10T13:03:40;9.52;;;5.55;;
21235;SDS011;10775;42.678;26.324;2023-01-10T13:06:12;13.55;;;8.90;;
21235;SDS011;10775;42.678;26.324;2023-01-10T13:08:47;14.93;;;7.75;;
21235;SDS011;10775;42.678;26.324;2023-01-10T13:11:14;12.43;;;6.63;;
21235;SDS011;10775;42.678;26.324;2023-01-10T13:13:44;13.20;;;7.15;;
21235;SDS011;10775;42.678;26.324;2023-01-10T13:16:41;8.82;;;6.35;;
21235;SDS011;10775;42.678;26.324;2023-01-10T13:21:37;8.57;;;5.88;;
21235;SDS011;10775;42.678;26.324;2023-01-10T13:26:50;12.15;;;6.40;;
21235;SDS011;10775;42.678;26.324;2023-01-10T13:29:22;11.25;;;6.35;;
21235;SDS011;10775;42.678;26.324;2023-01-10T13:31:51;11.73;;;6.90;;
21235;SDS011;10775;42.678;26.324;2023-01-10T13:34:22;9.73;;;6.22;;
21235;SDS011;10775;42.678;26.324;2023-01-10T14:06:55;14.00;;;9.27;;
21235;SDS011;10775;42.678;26.324;2023-01-10T14:11:51;14.23;;;8.38;;
21235;SDS011;10775;42.678;26.324;2023-01-10T14:14:21;16.98;;;8.07;;
21235;SDS011;10775;42.678;26.324;2023-01-10T14:17:12;12.15;;;7.75;;
21235;SDS011;10775;42.678;26.324;2023-01-10T14:19:48;13.35;;;8.52;;
21235;SDS011;10775;42.678;26.324;2023-01-10T14:22:31;13.07;;;7.37;;
21235;SDS011;10775;42.678;26.324;2023-01-10T14:25:00;12.88;;;8.57;;
21235;SDS011;10775;42.678;26.324;2023-01-10T14:29:59;13.13;;;8.38;;
21235;SDS011;10775;42.678;26.324;2023-01-10T14:32:31;14.95;;;7.55;;
21235;SDS011;10775;42.678;26.324;2023-01-10T14:35:08;12.10;;;7.15;;
21235;SDS011;10775;42.678;26.324;2023-01-10T14:37:45;13.40;;;7.05;;
21235;SDS011;10775;42.678;26.324;2023-01-10T14:40:23;12.10;;;8.02;;
21235;SDS011;10775;42.678;26.324;2023-01-10T14:42:59;12.30;;;7.30;;
21235;SDS011;10775;42.678;26.324;2023-01-10T14:45:38;13.30;;;7.75;;
21235;SDS011;10775;42.678;26.324;2023-01-10T14:48:21;14.70;;;8.48;;
21235;SDS011;10775;42.678;26.324;2023-01-10T14:53:42;14.38;;;8.30;;
21235;SDS011;10775;42.678;26.324;2023-01-10T14:56:22;11.10;;;7.68;;
21235;SDS011;10775;42.678;26.324;2023-01-10T14:58:50;11.82;;;7.75;;
21235;SDS011;10775;42.678;26.324;2023-01-10T15:01:19;12.82;;;8.23;;
21235;SDS011;10775;42.678;26.324;2023-01-10T15:03:47;13.88;;;8.73;;
21235;SDS011;10775;42.678;26.324;2023-01-10T15:06:14;14.05;;;8.82;;
21235;SDS011;10775;42.678;26.324;2023-01-10T15:08:39;12.80;;;8.45;;
21235;SDS011;10775;42.678;26.324;2023-01-10T15:11:06;13.25;;;7.60;;
21235;SDS011;10775;42.678;26.324;2023-01-10T15:13:40;12.93;;;7.68;;
21235;SDS011;10775;42.678;26.324;2023-01-10T15:16:20;12.75;;;8.23;;
21235;SDS011;10775;42.678;26.324;2023-01-10T15:18:48;16.40;;;9.32;;
21235;SDS011;10775;42.678;26.324;2023-01-10T15:21:15;15.18;;;8.68;;
21235;SDS011;10775;42.678;26.324;2023-01-10T15:23:44;14.88;;;9.82;;
21235;SDS011;10775;42.678;26.324;2023-01-10T15:26:12;16.58;;;10.10;;
21235;SDS011;10775;42.678;26.324;2023-01-10T15:29:08;17.10;;;10.35;;
21235;SDS011;10775;42.678;26.324;2023-01-10T15:31:38;14.07;;;10.18;;
21235;SDS011;10775;42.678;26.324;2023-01-10T15:34:15;16.27;;;9.48;;
21235;SDS011;10775;42.678;26.324;2023-01-10T15:36:45;16.85;;;9.50;;
21235;SDS011;10775;42.678;26.324;2023-01-10T15:39:26;17.50;;;8.80;;
21235;SDS011;10775;42.678;26.324;2023-01-10T15:42:02;13.60;;;7.88;;
21235;SDS011;10775;42.678;26.324;2023-01-10T15:56:02;12.40;;;7.25;;
21235;SDS011;10775;42.678;26.324;2023-01-10T15:58:25;10.95;;;6.40;;
21235;SDS011;10775;42.678;26.324;2023-01-10T16:00:53;12.93;;;7.18;;
21235;SDS011;10775;42.678;26.324;2023-01-10T16:06:03;17.13;;;10.88;;
21235;SDS011;10775;42.678;26.324;2023-01-10T16:08:34;11.63;;;7.85;;
21235;SDS011;10775;42.678;26.324;2023-01-10T16:11:03;12.38;;;7.93;;
21235;SDS011;10775;42.678;26.324;2023-01-10T16:13:32;8.93;;;5.25;;
21235;SDS011;10775;42.678;26.324;2023-01-10T16:16:01;13.52;;;7.93;;
21235;SDS011;10775;42.678;26.324;2023-01-10T16:18:29;12.20;;;7.15;;
21235;SDS011;10775;42.678;26.324;2023-01-10T16:20:55;11.40;;;6.72;;
21235;SDS011;10775;42.678;26.324;2023-01-10T16:23:24;12.38;;;7.10;;
21235;SDS011;10775;42.678;26.324;2023-01-10T16:25:54;12.82;;;7.15;;
21235;SDS011;10775;42.678;26.324;2023-01-10T16:28:22;12.65;;;7.85;;
21235;SDS011;10775;42.678;26.324;2023-01-10T16:30:49;14.43;;;8.25;;
21235;SDS011;10775;42.678;26.324;2023-01-10T16:33:16;9.77;;;5.38;;
21235;SDS011;10775;42.678;26.324;2023-01-10T16:35:47;14.32;;;7.05;;
21235;SDS011;10775;42.678;26.324;2023-01-10T16:38:14;12.27;;;7.30;;
21235;SDS011;10775;42.678;26.324;2023-01-10T16:41:02;12.40;;;6.72;;
21235;SDS011;10775;42.678;26.324;2023-01-10T16:43:47;26.02;;;10.57;;
21235;SDS011;10775;42.678;26.324;2023-01-10T16:46:13;13.48;;;7.60;;
21235;SDS011;10775;42.678;26.324;2023-01-10T16:48:39;13.13;;;7.60;;
21235;SDS011;10775;42.678;26.324;2023-01-10T16:51:26;9.95;;;6.88;;
21235;SDS011;10775;42.678;26.324;2023-01-10T16:53:56;12.80;;;7.22;;
21235;SDS011;10775;42.678;26.324;2023-01-10T16:56:23;10.48;;;6.90;;
21235;SDS011;10775;42.678;26.324;2023-01-10T16:58:51;11.77;;;6.78;;
21235;SDS011;10775;42.678;26.324;2023-01-10T17:01:28;11.85;;;7.43;;
21235;SDS011;10775;42.678;26.324;2023-01-10T17:03:56;11.10;;;6.18;;
21235;SDS011;10775;42.678;26.324;2023-01-10T17:06:23;9.90;;;6.57;;
21235;SDS011;10775;42.678;26.324;2023-01-10T17:08:48;9.75;;;7.00;;
21235;SDS011;10775;42.678;26.324;2023-01-10T17:11:47;10.85;;;6.43;;
21235;SDS011;10775;42.678;26.324;2023-01-10T17:14:08;15.07;;;7.70;;
21235;SDS011;10775;42.678;26.324;2023-01-10T17:16:38;13.65;;;7.43;;